createdAt,value
2022-11-29T00:00:24.957Z,23.50
2022-11-29T00:01:24.954Z,24.60
2022-11-29T00:02:25.040Z,27.10
2022-11-29T00:03:24.986Z,24.80
2022-11-29T00:04:24.971Z,24.50
2022-11-29T00:05:24.943Z,24.30
2022-11-29T00:06:24.939Z,24.50
2022-11-29T00:07:24.991Z,24.60
2022-11-29T00:08:24.913Z,24.00
2022-11-29T00:09:24.906Z,23.40
2022-11-29T00:10:24.885Z,23.20
2022-11-29T00:11:24.921Z,24.20
2022-11-29T00:12:24.894Z,24.10
2022-11-29T00:13:24.882Z,23.10
2022-11-29T00:14:24.874Z,23.40
2022-11-29T00:15:24.869Z,22.70
2022-11-29T00:16:24.942Z,23.30
2022-11-29T00:17:24.863Z,22.60
2022-11-29T00:18:24.849Z,22.30
2022-11-29T00:19:24.869Z,23.10
2022-11-29T00:20:24.847Z,23.10
2022-11-29T00:21:24.853Z,23.50
2022-11-29T00:22:24.862Z,23.40
2022-11-29T00:23:24.821Z,21.60
2022-11-29T00:24:24.843Z,22.70
2022-11-29T00:25:24.833Z,22.30
2022-11-29T00:26:24.821Z,22.00
2022-11-29T00:27:24.867Z,20.90
2022-11-29T00:28:24.873Z,22.10
2022-11-29T00:29:24.822Z,23.10
2022-11-29T00:30:24.844Z,22.20
2022-11-29T00:31:24.787Z,22.20
2022-11-29T00:32:24.812Z,21.80
2022-11-29T00:33:24.816Z,22.30
2022-11-29T00:34:24.769Z,21.80
2022-11-29T00:35:24.771Z,22.60
2022-11-29T00:36:24.772Z,21.90
2022-11-29T00:37:24.833Z,22.70
2022-11-29T00:38:24.799Z,22.20
2022-11-29T00:39:24.755Z,24.20
2022-11-29T00:40:24.772Z,22.50
2022-11-29T00:41:24.737Z,22.70
2022-11-29T00:42:24.746Z,22.60
2022-11-29T00:43:24.729Z,22.70
2022-11-29T00:44:24.730Z,21.40
2022-11-29T00:45:24.799Z,23.00
2022-11-29T00:46:24.821Z,21.80
2022-11-29T00:47:24.730Z,22.00
2022-11-29T00:48:24.705Z,21.10
2022-11-29T00:49:24.738Z,22.50
2022-11-29T00:50:24.691Z,22.00
2022-11-29T00:51:24.691Z,22.00
2022-11-29T00:52:24.687Z,22.60
2022-11-29T00:53:24.697Z,21.00
2022-11-29T00:54:24.697Z,22.40
2022-11-29T00:55:24.681Z,22.60
2022-11-29T00:56:24.676Z,21.10
2022-11-29T00:57:24.666Z,22.10
2022-11-29T00:58:24.674Z,21.30
2022-11-29T00:59:24.671Z,21.40
2022-11-29T01:00:24.653Z,20.70
2022-11-29T01:01:24.772Z,20.10
2022-11-29T01:02:24.684Z,21.00
2022-11-29T01:03:24.680Z,20.20
2022-11-29T01:04:24.632Z,20.90
2022-11-29T01:05:24.618Z,21.40
2022-11-29T01:06:24.650Z,20.70
2022-11-29T01:07:24.716Z,19.90
2022-11-29T01:08:24.600Z,21.20
2022-11-29T01:09:24.604Z,20.30
2022-11-29T01:10:24.583Z,21.20
2022-11-29T01:11:24.604Z,21.00
2022-11-29T01:12:24.601Z,21.70
2022-11-29T01:13:24.613Z,20.50
2022-11-29T01:14:24.581Z,21.60
2022-11-29T01:15:24.613Z,20.10
2022-11-29T01:16:24.668Z,20.10
2022-11-29T01:17:24.551Z,19.80
2022-11-29T01:18:24.598Z,21.00
2022-11-29T01:19:24.543Z,20.80
2022-11-29T01:20:24.532Z,20.40
2022-11-29T01:21:24.569Z,20.90
2022-11-29T01:22:24.582Z,20.50
2022-11-29T01:23:24.524Z,21.00
2022-11-29T01:24:24.529Z,20.30
2022-11-29T01:25:24.522Z,20.90
2022-11-29T01:26:24.511Z,21.90
2022-11-29T01:27:24.542Z,21.20
2022-11-29T01:28:24.498Z,21.30
2022-11-29T01:29:24.497Z,20.40
2022-11-29T01:30:24.545Z,21.20
2022-11-29T01:31:24.479Z,21.40
2022-11-29T01:32:24.503Z,21.70
2022-11-29T01:33:24.492Z,22.40
2022-11-29T01:34:24.510Z,22.20
2022-11-29T01:35:24.461Z,23.00
2022-11-29T01:36:24.456Z,23.30
2022-11-29T01:37:24.477Z,23.40
2022-11-29T01:38:24.455Z,23.60
2022-11-29T01:39:24.482Z,22.80
2022-11-29T01:40:24.492Z,24.90
2022-11-29T01:41:24.442Z,23.60
2022-11-29T01:42:24.436Z,25.50
2022-11-29T01:43:24.423Z,27.50
2022-11-29T01:44:24.453Z,26.00
2022-11-29T01:45:24.417Z,25.90
2022-11-29T01:46:24.463Z,24.90
2022-11-29T01:47:24.405Z,26.00
2022-11-29T01:48:24.426Z,26.90
2022-11-29T01:49:24.431Z,25.90
2022-11-29T01:50:24.385Z,25.50
2022-11-29T01:51:24.382Z,25.30
2022-11-29T01:52:24.374Z,24.80
2022-11-29T01:53:24.480Z,23.90
2022-11-29T01:54:24.415Z,24.50
2022-11-29T01:55:24.385Z,23.90
2022-11-29T01:56:25.347Z,24.60
2022-11-29T01:57:24.351Z,24.60
2022-11-29T01:58:24.356Z,23.70
2022-11-29T01:59:24.365Z,24.00
2022-11-29T02:00:24.329Z,24.70
2022-11-29T02:01:24.388Z,23.70
2022-11-29T02:02:25.402Z,24.70
2022-11-29T02:03:24.328Z,23.90
2022-11-29T02:04:24.312Z,24.50
2022-11-29T02:05:24.291Z,23.60
2022-11-29T02:06:24.329Z,24.20
2022-11-29T02:07:24.385Z,23.80
2022-11-29T02:08:24.291Z,23.30
2022-11-29T02:09:25.297Z,24.10
2022-11-29T02:10:24.274Z,23.70
2022-11-29T02:11:24.307Z,23.80
2022-11-29T02:12:24.295Z,23.90
2022-11-29T02:13:24.331Z,23.90
2022-11-29T02:14:24.262Z,23.70
2022-11-29T02:15:24.254Z,24.40
2022-11-29T02:16:24.251Z,24.10
2022-11-29T02:17:24.298Z,24.30
2022-11-29T02:18:24.276Z,24.20
2022-11-29T02:19:24.245Z,24.70
2022-11-29T02:20:24.241Z,24.70
2022-11-29T02:21:24.234Z,23.60
2022-11-29T02:22:24.261Z,23.80
2022-11-29T02:23:24.223Z,24.60
2022-11-29T02:24:24.247Z,24.10
2022-11-29T02:25:24.202Z,24.30
2022-11-29T02:26:24.233Z,24.10
2022-11-29T02:27:24.194Z,23.10
2022-11-29T02:28:24.278Z,23.90
2022-11-29T02:29:24.222Z,23.60
2022-11-29T02:30:24.251Z,23.60
2022-11-29T02:31:24.178Z,22.90
2022-11-29T02:32:24.205Z,23.90
2022-11-29T02:33:24.179Z,23.10
2022-11-29T02:34:24.162Z,24.10
2022-11-29T02:35:24.177Z,24.10
2022-11-29T02:36:24.139Z,23.30
2022-11-29T02:37:24.119Z,23.50
2022-11-29T02:38:24.177Z,22.60
2022-11-29T02:39:24.193Z,23.30
2022-11-29T02:40:24.125Z,23.20
2022-11-29T02:41:24.120Z,23.20
2022-11-29T02:42:24.130Z,23.30
2022-11-29T02:43:24.094Z,22.70
2022-11-29T02:44:24.135Z,22.70
2022-11-29T02:45:24.094Z,23.30
2022-11-29T02:46:24.137Z,23.20
2022-11-29T02:47:24.092Z,24.20
2022-11-29T02:48:24.125Z,22.60
2022-11-29T02:49:24.071Z,24.10
2022-11-29T02:50:24.082Z,22.20
2022-11-29T02:51:24.098Z,23.40
2022-11-29T02:52:24.038Z,23.50
2022-11-29T02:53:24.069Z,23.00
2022-11-29T02:54:24.088Z,22.30
2022-11-29T02:55:24.056Z,23.70
2022-11-29T02:56:24.074Z,22.90
2022-11-29T02:57:24.013Z,22.80
2022-11-29T02:58:24.020Z,22.80
2022-11-29T02:59:24.026Z,24.10
2022-11-29T03:00:24.008Z,22.30
2022-11-29T03:01:25.081Z,23.00
2022-11-29T03:02:24.033Z,23.30
2022-11-29T03:03:24.045Z,23.60
2022-11-29T03:04:23.999Z,23.00
2022-11-29T03:05:23.972Z,22.80
2022-11-29T03:06:23.974Z,21.90
2022-11-29T03:07:24.039Z,23.10
2022-11-29T03:08:23.979Z,21.80
2022-11-29T03:09:24.033Z,21.90
2022-11-29T03:10:23.941Z,24.10
2022-11-29T03:11:23.948Z,21.50
2022-11-29T03:12:23.961Z,22.60
2022-11-29T03:13:23.965Z,22.60
2022-11-29T03:14:23.915Z,22.10
2022-11-29T03:15:24.048Z,22.30
2022-11-29T03:16:23.946Z,21.10
2022-11-29T03:17:23.944Z,21.80
2022-11-29T03:18:23.922Z,22.20
2022-11-29T03:19:23.922Z,22.50
2022-11-29T03:20:23.898Z,22.70
2022-11-29T03:21:23.899Z,21.40
2022-11-29T03:22:23.884Z,21.40
2022-11-29T03:23:23.909Z,21.80
2022-11-29T03:24:23.896Z,21.50
2022-11-29T03:25:23.937Z,21.30
2022-11-29T03:26:23.884Z,21.60
2022-11-29T03:27:23.861Z,21.30
2022-11-29T03:28:23.886Z,21.00
2022-11-29T03:29:23.865Z,22.00
2022-11-29T03:30:23.843Z,21.10
2022-11-29T03:31:23.884Z,20.90
2022-11-29T03:32:23.840Z,21.10
2022-11-29T03:33:23.851Z,21.70
2022-11-29T03:34:23.864Z,20.70
2022-11-29T03:35:23.844Z,20.80
2022-11-29T03:36:23.820Z,19.80
2022-11-29T03:37:23.825Z,19.80
2022-11-29T03:38:23.838Z,23.00
2022-11-29T03:39:23.819Z,21.20
2022-11-29T03:40:23.982Z,20.90
2022-11-29T03:41:23.811Z,20.50
2022-11-29T03:42:23.805Z,21.20
2022-11-29T03:43:23.785Z,20.00
2022-11-29T03:44:23.774Z,20.50
2022-11-29T03:45:23.800Z,20.50
2022-11-29T03:46:23.807Z,20.10
2022-11-29T03:47:23.791Z,21.20
2022-11-29T03:48:23.755Z,20.40
2022-11-29T03:49:23.763Z,21.30
2022-11-29T03:50:23.766Z,20.50
2022-11-29T03:51:23.728Z,19.60
2022-11-29T03:52:24.739Z,21.20
2022-11-29T03:53:23.728Z,20.60
2022-11-29T03:54:23.741Z,20.40
2022-11-29T03:55:23.745Z,19.60
2022-11-29T03:56:23.711Z,20.20
2022-11-29T03:57:23.703Z,20.70
2022-11-29T03:58:23.713Z,20.20
2022-11-29T03:59:23.735Z,19.60
2022-11-29T04:00:23.719Z,19.10
2022-11-29T04:01:23.687Z,19.10
2022-11-29T04:02:23.747Z,20.20
2022-11-29T04:03:24.307Z,20.00
2022-11-29T04:04:23.692Z,20.00
2022-11-29T04:05:23.667Z,20.70
2022-11-29T04:06:23.673Z,19.90
2022-11-29T04:07:23.680Z,21.90
2022-11-29T04:08:23.696Z,21.40
2022-11-29T04:09:23.654Z,21.50
2022-11-29T04:10:23.669Z,21.40
2022-11-29T04:11:23.638Z,22.30
2022-11-29T04:12:23.642Z,22.30
2022-11-29T04:13:23.634Z,21.80
2022-11-29T04:14:23.635Z,21.40
2022-11-29T04:15:23.621Z,21.90
2022-11-29T04:16:23.652Z,21.90
2022-11-29T04:17:23.639Z,21.40
2022-11-29T04:18:23.629Z,22.30
2022-11-29T04:19:23.636Z,21.10
2022-11-29T04:20:23.602Z,22.50
2022-11-29T04:21:23.596Z,21.30
2022-11-29T04:22:23.588Z,22.20
2022-11-29T04:23:24.378Z,23.00
2022-11-29T04:24:23.603Z,23.70
2022-11-29T04:25:23.563Z,22.40
2022-11-29T04:26:23.562Z,24.20
2022-11-29T04:27:23.553Z,22.70
2022-11-29T04:28:23.578Z,23.10
2022-11-29T04:29:23.594Z,23.20
2022-11-29T04:30:23.539Z,22.30
2022-11-29T04:31:23.595Z,23.40
2022-11-29T04:32:23.537Z,22.80
2022-11-29T04:33:23.536Z,23.10
2022-11-29T04:34:23.558Z,22.60
2022-11-29T04:35:23.559Z,23.80
2022-11-29T04:36:23.529Z,24.00
2022-11-29T04:37:23.521Z,23.50
2022-11-29T04:38:23.488Z,23.00
2022-11-29T04:39:23.505Z,22.90
2022-11-29T04:40:23.504Z,22.60
2022-11-29T04:41:23.503Z,23.10
2022-11-29T04:42:23.512Z,22.50
2022-11-29T04:43:23.508Z,22.40
2022-11-29T04:44:23.482Z,22.90
2022-11-29T04:45:23.485Z,21.90
2022-11-29T04:46:23.505Z,22.00
2022-11-29T04:47:23.453Z,21.10
2022-11-29T04:48:23.453Z,22.00
2022-11-29T04:49:23.440Z,21.00
2022-11-29T04:50:23.447Z,22.40
2022-11-29T04:51:23.462Z,21.10
2022-11-29T04:52:23.444Z,23.00
2022-11-29T04:53:23.448Z,21.70
2022-11-29T04:54:23.417Z,21.70
2022-11-29T04:55:30.528Z,21.00
2022-11-29T04:56:25.574Z,21.20
2022-11-29T04:57:23.432Z,20.40
2022-11-29T04:58:23.396Z,21.30
2022-11-29T04:59:23.443Z,21.30
2022-11-29T05:00:23.386Z,21.80
2022-11-29T05:01:23.520Z,21.40
2022-11-29T05:02:23.438Z,21.00
2022-11-29T05:03:23.404Z,21.80
2022-11-29T05:04:23.369Z,22.80
2022-11-29T05:05:23.359Z,21.00
2022-11-29T05:06:23.374Z,21.60
2022-11-29T05:07:23.479Z,21.30
2022-11-29T05:08:23.349Z,21.10
2022-11-29T05:09:23.338Z,21.30
2022-11-29T05:10:23.355Z,21.40
2022-11-29T05:11:26.673Z,20.90
2022-11-29T05:12:24.377Z,21.00
2022-11-29T05:13:23.312Z,21.60
2022-11-29T05:14:23.312Z,21.10
2022-11-29T05:15:23.314Z,21.80
2022-11-29T05:16:23.353Z,21.90
2022-11-29T05:17:23.359Z,21.40
2022-11-29T05:18:23.290Z,21.60
2022-11-29T05:19:23.283Z,20.90
2022-11-29T05:20:23.293Z,21.00
2022-11-29T05:21:23.280Z,21.40
2022-11-29T05:22:23.294Z,22.70
2022-11-29T05:23:23.299Z,22.20
2022-11-29T05:24:23.256Z,23.00
2022-11-29T05:25:23.351Z,23.00
2022-11-29T05:26:23.243Z,22.20
2022-11-29T05:27:23.242Z,22.90
2022-11-29T05:28:23.254Z,22.30
2022-11-29T05:29:23.256Z,21.60
2022-11-29T05:30:23.243Z,22.70
2022-11-29T05:31:23.262Z,21.60
2022-11-29T05:32:23.206Z,21.60
2022-11-29T05:33:23.384Z,22.30
2022-11-29T05:34:23.233Z,22.00
2022-11-29T05:35:23.231Z,22.00
2022-11-29T05:36:23.189Z,23.60
2022-11-29T05:37:23.208Z,23.00
2022-11-29T05:38:23.213Z,21.30
2022-11-29T05:39:23.220Z,21.80
2022-11-29T05:40:23.208Z,22.20
2022-11-29T05:41:23.199Z,23.00
2022-11-29T05:42:23.158Z,23.20
2022-11-29T05:43:23.163Z,23.40
2022-11-29T05:44:23.206Z,23.10
2022-11-29T05:45:23.179Z,22.40
2022-11-29T05:46:23.196Z,23.50
2022-11-29T05:47:26.883Z,24.00
2022-11-29T05:48:25.216Z,23.50
2022-11-29T05:49:23.145Z,22.60
2022-11-29T05:50:23.126Z,23.30
2022-11-29T05:51:23.152Z,23.50
2022-11-29T05:52:23.106Z,23.90
2022-11-29T05:53:23.112Z,23.80
2022-11-29T05:54:23.111Z,22.80
2022-11-29T05:55:23.093Z,24.20
2022-11-29T05:56:23.116Z,23.40
2022-11-29T05:57:23.103Z,24.30
2022-11-29T05:58:28.595Z,24.70
2022-11-29T05:59:25.072Z,24.70
2022-11-29T06:00:23.109Z,23.80
2022-11-29T06:01:23.142Z,23.90
2022-11-29T06:02:23.152Z,24.20
2022-11-29T06:03:23.078Z,23.20
2022-11-29T06:04:23.068Z,23.50
2022-11-29T06:05:23.050Z,23.70
2022-11-29T06:06:23.086Z,25.30
2022-11-29T06:07:23.106Z,24.90
2022-11-29T06:08:23.024Z,24.80
2022-11-29T06:09:23.037Z,25.50
2022-11-29T06:10:23.052Z,25.90
2022-11-29T06:11:23.012Z,26.00
2022-11-29T06:12:23.043Z,25.40
2022-11-29T06:13:23.028Z,25.80
2022-11-29T06:14:23.037Z,25.90
2022-11-29T06:15:23.004Z,25.40
2022-11-29T06:16:23.057Z,27.30
2022-11-29T06:17:22.989Z,26.20
2022-11-29T06:18:22.990Z,26.00
2022-11-29T06:19:23.015Z,25.90
2022-11-29T06:20:22.979Z,24.50
2022-11-29T06:21:22.962Z,25.10
2022-11-29T06:22:22.972Z,24.70
2022-11-29T06:23:22.957Z,24.70
2022-11-29T06:24:25.919Z,25.00
2022-11-29T06:25:23.951Z,25.00
2022-11-29T06:26:23.003Z,23.00
2022-11-29T06:27:22.944Z,24.60
2022-11-29T06:28:22.964Z,24.20
2022-11-29T06:29:22.925Z,24.10
2022-11-29T06:30:22.925Z,25.20
2022-11-29T06:31:22.996Z,23.70
2022-11-29T06:32:22.914Z,22.80
2022-11-29T06:33:22.922Z,24.20
2022-11-29T06:34:27.588Z,23.70
2022-11-29T06:35:24.946Z,22.70
2022-11-29T06:36:22.919Z,24.20
2022-11-29T06:37:22.889Z,24.90
2022-11-29T06:38:22.896Z,24.20
2022-11-29T06:39:22.879Z,24.70
2022-11-29T06:40:22.887Z,24.70
2022-11-29T06:41:22.900Z,24.50
2022-11-29T06:42:22.849Z,25.10
2022-11-29T06:43:22.909Z,26.00
2022-11-29T06:44:22.872Z,24.20
2022-11-29T06:45:22.886Z,25.50
2022-11-29T06:46:22.871Z,23.80
2022-11-29T06:47:22.917Z,24.30
2022-11-29T06:48:22.835Z,25.60
2022-11-29T06:49:22.829Z,25.60
2022-11-29T06:50:22.834Z,24.40
2022-11-29T06:51:22.826Z,24.80
2022-11-29T06:52:22.833Z,24.90
2022-11-29T06:53:23.837Z,26.40
2022-11-29T06:54:22.808Z,26.70
2022-11-29T06:55:22.818Z,27.00
2022-11-29T06:56:22.807Z,27.50
2022-11-29T06:57:22.814Z,27.20
2022-11-29T06:58:22.796Z,27.30
2022-11-29T06:59:22.774Z,25.40
2022-11-29T07:00:22.763Z,24.00
2022-11-29T07:01:22.841Z,24.10
2022-11-29T07:02:22.800Z,24.40
2022-11-29T07:03:22.773Z,24.90
2022-11-29T07:04:22.779Z,26.50
2022-11-29T07:05:22.762Z,25.90
2022-11-29T07:06:22.734Z,23.90
2022-11-29T07:07:22.774Z,24.70
2022-11-29T07:08:22.751Z,24.20
2022-11-29T07:09:22.720Z,24.60
2022-11-29T07:10:22.756Z,27.70
2022-11-29T07:11:22.809Z,27.50
2022-11-29T07:12:22.697Z,26.50
2022-11-29T07:13:22.726Z,26.80
2022-11-29T07:14:22.692Z,25.70
2022-11-29T07:15:22.713Z,26.10
2022-11-29T07:16:22.883Z,25.80
2022-11-29T07:17:22.685Z,25.20
2022-11-29T07:18:22.691Z,25.10
2022-11-29T07:19:22.688Z,24.70
2022-11-29T07:20:22.657Z,25.00
2022-11-29T07:21:22.647Z,24.90
2022-11-29T07:22:22.655Z,25.60
2022-11-29T07:23:22.691Z,23.40
2022-11-29T07:24:22.679Z,23.60
2022-11-29T07:25:22.636Z,23.70
2022-11-29T07:26:22.678Z,23.50
2022-11-29T07:27:22.634Z,23.10
2022-11-29T07:28:22.650Z,24.50
2022-11-29T07:29:22.615Z,23.40
2022-11-29T07:30:22.615Z,23.30
2022-11-29T07:31:22.727Z,23.10
2022-11-29T07:32:22.596Z,22.50
2022-11-29T07:33:22.595Z,22.20
2022-11-29T07:34:22.629Z,23.90
2022-11-29T07:35:22.614Z,22.60
2022-11-29T07:36:22.667Z,23.50
2022-11-29T07:37:22.603Z,23.10
2022-11-29T07:38:22.558Z,23.30
2022-11-29T07:39:22.569Z,23.90
2022-11-29T07:40:22.563Z,23.70
2022-11-29T07:41:22.585Z,24.60
2022-11-29T07:42:22.536Z,22.90
2022-11-29T07:43:22.555Z,22.80
2022-11-29T07:44:22.567Z,22.20
2022-11-29T07:45:22.526Z,22.60
2022-11-29T07:46:22.664Z,22.60
2022-11-29T07:47:22.542Z,22.30
2022-11-29T07:48:22.546Z,22.00
2022-11-29T07:49:22.606Z,21.40
2022-11-29T07:50:22.520Z,20.80
2022-11-29T07:51:22.484Z,20.30
2022-11-29T07:52:22.494Z,20.60
2022-11-29T07:53:22.528Z,20.80
2022-11-29T07:54:22.492Z,20.60
2022-11-29T07:55:22.502Z,20.40
2022-11-29T07:56:22.485Z,20.20
2022-11-29T07:57:22.459Z,20.40
2022-11-29T07:58:22.512Z,19.40
2022-11-29T07:59:22.448Z,20.40
2022-11-29T08:00:22.444Z,20.10
2022-11-29T08:01:22.510Z,20.60
2022-11-29T08:02:22.500Z,19.90
2022-11-29T08:03:22.616Z,20.40
2022-11-29T08:04:22.463Z,20.80
2022-11-29T08:05:22.426Z,20.70
2022-11-29T08:06:22.409Z,20.00
2022-11-29T08:07:22.425Z,20.20
2022-11-29T08:08:22.393Z,20.40
2022-11-29T08:09:22.391Z,20.10
2022-11-29T08:10:22.416Z,21.10
2022-11-29T08:11:22.431Z,20.80
2022-11-29T08:12:22.398Z,21.40
2022-11-29T08:13:22.396Z,21.60
2022-11-29T08:14:22.391Z,22.20
2022-11-29T08:15:22.464Z,21.20
2022-11-29T08:16:22.400Z,21.40
2022-11-29T08:17:22.361Z,22.40
2022-11-29T08:18:22.467Z,20.80
2022-11-29T08:19:22.506Z,20.60
2022-11-29T08:20:22.408Z,20.90
2022-11-29T08:21:22.368Z,21.50
2022-11-29T08:22:22.334Z,21.50
2022-11-29T08:23:22.328Z,21.30
2022-11-29T08:24:22.323Z,22.10
2022-11-29T08:25:22.316Z,21.60
2022-11-29T08:26:25.549Z,21.20
2022-11-29T08:27:23.328Z,21.70
2022-11-29T08:28:22.315Z,21.20
2022-11-29T08:29:22.386Z,20.90
2022-11-29T08:30:22.302Z,20.90
2022-11-29T08:31:22.310Z,19.70
2022-11-29T08:32:22.308Z,21.00
2022-11-29T08:33:22.289Z,20.70
2022-11-29T08:34:22.259Z,20.70
2022-11-29T08:35:22.274Z,22.30
2022-11-29T08:36:22.265Z,20.70
2022-11-29T08:37:22.295Z,21.80
2022-11-29T08:38:22.257Z,22.20
2022-11-29T08:39:22.278Z,21.70
2022-11-29T08:40:22.262Z,21.00
2022-11-29T08:41:22.229Z,22.90
2022-11-29T08:42:22.292Z,23.00
2022-11-29T08:43:22.225Z,23.50
2022-11-29T08:44:22.273Z,22.90
2022-11-29T08:45:22.286Z,23.40
2022-11-29T08:46:22.215Z,22.80
2022-11-29T08:47:22.214Z,23.30
2022-11-29T08:48:22.247Z,21.00
2022-11-29T08:49:22.236Z,21.80
2022-11-29T08:50:22.184Z,23.90
2022-11-29T08:51:22.191Z,24.10
2022-11-29T08:52:22.176Z,24.10
2022-11-29T08:53:22.193Z,23.60
2022-11-29T08:54:22.165Z,24.90
2022-11-29T08:55:22.175Z,25.50
2022-11-29T08:57:39.669Z,25.10
2022-11-29T08:58:24.188Z,24.30
2022-11-29T08:59:22.142Z,23.40
2022-11-29T09:00:22.160Z,22.10
2022-11-29T09:01:22.230Z,21.40
2022-11-29T09:02:22.174Z,21.90
2022-11-29T09:03:22.176Z,21.90
2022-11-29T09:04:22.148Z,21.30
2022-11-29T09:05:22.116Z,22.30
2022-11-29T09:06:22.128Z,21.70
2022-11-29T09:07:22.169Z,21.40
2022-11-29T09:08:22.146Z,20.90
2022-11-29T09:09:22.129Z,22.10
2022-11-29T09:10:22.146Z,20.40
2022-11-29T09:11:22.092Z,21.30
2022-11-29T09:12:22.104Z,21.40
2022-11-29T09:13:22.087Z,20.80
2022-11-29T09:14:22.082Z,20.80
2022-11-29T09:15:22.123Z,19.70
2022-11-29T09:16:22.074Z,20.10
2022-11-29T09:17:22.120Z,20.30
2022-11-29T09:18:22.090Z,20.20
2022-11-29T09:19:22.053Z,18.60
2022-11-29T09:20:22.073Z,19.70
2022-11-29T09:21:22.110Z,20.40
2022-11-29T09:22:22.065Z,19.70
2022-11-29T09:23:22.560Z,19.60
2022-11-29T09:24:22.022Z,19.20
2022-11-29T09:25:23.019Z,19.20
2022-11-29T09:26:22.008Z,19.00
2022-11-29T09:27:22.039Z,19.50
2022-11-29T09:28:22.017Z,18.20
2022-11-29T09:29:21.998Z,18.70
2022-11-29T09:30:23.747Z,19.20
2022-11-29T09:31:23.021Z,18.10
2022-11-29T09:32:22.000Z,17.90
2022-11-29T09:33:22.085Z,17.70
2022-11-29T09:34:21.997Z,17.20
2022-11-29T09:35:21.989Z,18.30
2022-11-29T09:36:27.900Z,17.60
2022-11-29T09:37:23.981Z,18.60
2022-11-29T09:38:21.987Z,19.00
2022-11-29T09:39:21.962Z,19.80
2022-11-29T09:40:22.012Z,18.10
2022-11-29T09:41:22.297Z,18.30
2022-11-29T09:42:21.928Z,19.00
2022-11-29T09:43:21.953Z,19.20
2022-11-29T09:44:21.997Z,18.50
2022-11-29T09:45:21.928Z,19.10
2022-11-29T09:46:21.969Z,19.40
2022-11-29T09:47:21.910Z,19.10
2022-11-29T09:48:21.927Z,18.50
2022-11-29T09:49:21.938Z,18.10
2022-11-29T09:50:21.910Z,18.80
2022-11-29T09:51:21.893Z,18.70
2022-11-29T09:52:21.896Z,17.90
2022-11-29T09:53:21.905Z,18.00
2022-11-29T09:54:21.869Z,16.50
2022-11-29T09:55:21.895Z,17.40
2022-11-29T09:56:21.861Z,16.90
2022-11-29T09:57:21.851Z,17.70
2022-11-29T09:58:21.856Z,16.90
2022-11-29T09:59:21.843Z,17.50
2022-11-29T10:00:21.854Z,16.80
2022-11-29T10:01:22.872Z,17.20
2022-11-29T10:02:22.211Z,17.10
2022-11-29T10:03:21.819Z,16.60
2022-11-29T10:04:21.826Z,16.20
2022-11-29T10:05:21.846Z,16.70
2022-11-29T10:06:21.832Z,17.90
2022-11-29T10:07:21.889Z,18.30
2022-11-29T10:08:21.802Z,18.70
2022-11-29T10:09:21.784Z,17.60
2022-11-29T10:10:21.794Z,18.50
2022-11-29T10:11:21.802Z,18.60
2022-11-29T10:12:21.783Z,18.00
2022-11-29T10:13:21.766Z,19.00
2022-11-29T10:14:21.898Z,18.30
2022-11-29T10:15:21.762Z,19.10
2022-11-29T10:16:21.796Z,19.10
2022-11-29T10:17:21.745Z,17.80
2022-11-29T10:18:21.737Z,18.30
2022-11-29T10:19:21.776Z,19.00
2022-11-29T10:20:21.755Z,17.90
2022-11-29T10:21:21.744Z,19.40
2022-11-29T10:22:21.751Z,19.10
2022-11-29T10:23:21.718Z,19.60
2022-11-29T10:24:21.740Z,20.70
2022-11-29T10:25:21.809Z,20.50
2022-11-29T10:26:21.704Z,20.10
2022-11-29T10:27:21.743Z,20.60
2022-11-29T10:28:21.700Z,21.70
2022-11-29T10:29:21.690Z,21.70
2022-11-29T10:30:21.701Z,22.60
2022-11-29T10:31:21.677Z,22.20
2022-11-29T10:32:21.711Z,23.70
2022-11-29T10:33:21.693Z,23.00
2022-11-29T10:34:21.679Z,23.20
2022-11-29T10:35:21.687Z,23.60
2022-11-29T10:36:21.666Z,22.90
2022-11-29T10:37:21.675Z,22.50
2022-11-29T10:38:30.685Z,22.80
2022-11-29T10:39:23.683Z,22.10
2022-11-29T10:40:21.644Z,22.20
2022-11-29T10:41:21.629Z,21.40
2022-11-29T10:42:22.650Z,22.20
2022-11-29T10:43:21.695Z,22.30
2022-11-29T10:44:21.623Z,21.40
2022-11-29T10:45:21.663Z,21.00
2022-11-29T10:46:21.685Z,20.20
2022-11-29T10:47:21.611Z,22.20
2022-11-29T10:48:21.625Z,21.10
2022-11-29T10:49:21.594Z,21.80
2022-11-29T10:50:21.587Z,22.00
2022-11-29T10:51:21.613Z,20.60
2022-11-29T10:52:21.716Z,20.70
2022-11-29T10:53:21.588Z,19.90
2022-11-29T10:54:21.583Z,20.00
2022-11-29T10:55:21.575Z,20.50
2022-11-29T10:56:21.821Z,21.20
2022-11-29T10:57:21.946Z,21.50
2022-11-29T10:58:27.491Z,20.90
2022-11-29T10:59:23.559Z,21.90
2022-11-29T11:00:21.561Z,21.00
2022-11-29T11:01:21.738Z,21.20
2022-11-29T11:02:21.567Z,20.90
2022-11-29T11:03:21.543Z,20.90
2022-11-29T11:04:21.533Z,21.20
2022-11-29T11:05:21.551Z,20.90
2022-11-29T11:06:21.582Z,21.90
2022-11-29T11:07:21.579Z,20.70
2022-11-29T11:08:21.507Z,21.10
2022-11-29T11:09:21.527Z,21.80
2022-11-29T11:10:21.509Z,21.90
2022-11-29T11:11:21.516Z,21.50
2022-11-29T11:12:21.557Z,22.30
2022-11-29T11:13:21.494Z,22.00
2022-11-29T11:14:21.470Z,23.10
2022-11-29T11:15:21.482Z,22.50
2022-11-29T11:16:21.533Z,23.50
2022-11-29T11:17:21.581Z,22.40
2022-11-29T11:18:21.497Z,21.60
2022-11-29T11:19:21.471Z,22.00
2022-11-29T11:20:21.485Z,22.30
2022-11-29T11:21:21.491Z,20.80
2022-11-29T11:22:21.436Z,21.00
2022-11-29T11:23:21.459Z,21.50
2022-11-29T11:24:21.437Z,21.50
2022-11-29T11:25:21.493Z,22.30
2022-11-29T11:26:21.498Z,21.40
2022-11-29T11:27:21.417Z,21.40
2022-11-29T11:28:21.426Z,23.30
2022-11-29T11:29:21.426Z,22.10
2022-11-29T11:30:21.439Z,21.30
2022-11-29T11:31:21.617Z,21.20
2022-11-29T11:32:21.432Z,20.70
2022-11-29T11:33:21.403Z,21.60
2022-11-29T11:34:21.433Z,21.60
2022-11-29T11:35:21.466Z,21.30
2022-11-29T11:36:21.409Z,20.00
2022-11-29T11:37:21.441Z,20.90
2022-11-29T11:38:21.379Z,20.60
2022-11-29T11:39:21.384Z,21.50
2022-11-29T11:40:21.413Z,20.50
2022-11-29T11:41:21.378Z,21.60
2022-11-29T11:42:21.339Z,21.10
2022-11-29T11:43:21.393Z,21.20
2022-11-29T11:44:45.714Z,21.00
2022-11-29T11:45:23.348Z,21.70
2022-11-29T11:46:21.368Z,21.40
2022-11-29T11:47:21.380Z,20.10
2022-11-29T11:48:21.360Z,19.80
2022-11-29T11:49:21.337Z,20.10
2022-11-29T11:50:21.309Z,20.80
2022-11-29T11:51:21.345Z,20.10
2022-11-29T11:52:21.342Z,21.00
2022-11-29T11:53:21.335Z,21.90
2022-11-29T11:54:21.303Z,21.70
2022-11-29T11:55:21.280Z,22.30
2022-11-29T11:56:21.297Z,22.50
2022-11-29T11:57:21.286Z,22.70
2022-11-29T11:58:21.298Z,21.30
2022-11-29T11:59:21.292Z,21.70
2022-11-29T12:00:40.599Z,22.00
2022-11-29T12:01:23.325Z,19.60
2022-11-29T12:02:21.273Z,20.00
2022-11-29T12:03:21.272Z,20.30
2022-11-29T12:04:21.280Z,19.90
2022-11-29T12:05:21.254Z,20.30
2022-11-29T12:06:21.337Z,20.30
2022-11-29T12:07:29.707Z,20.50
2022-11-29T12:08:23.270Z,21.20
2022-11-29T12:09:21.251Z,20.80
2022-11-29T12:10:21.233Z,20.60
2022-11-29T12:11:21.222Z,20.60
2022-11-29T12:12:21.249Z,21.10
2022-11-29T12:13:21.215Z,20.40
2022-11-29T12:14:21.232Z,20.40
2022-11-29T12:15:21.213Z,20.90
2022-11-29T12:16:21.239Z,21.60
2022-11-29T12:17:21.225Z,20.80
2022-11-29T12:18:21.307Z,20.70
2022-11-29T12:19:21.185Z,20.30
2022-11-29T12:20:21.200Z,19.50
2022-11-29T12:21:21.184Z,19.60
2022-11-29T12:22:21.188Z,20.40
2022-11-29T12:23:21.214Z,19.30
2022-11-29T12:24:21.142Z,19.40
2022-11-29T12:25:21.213Z,20.60
2022-11-29T12:26:54.836Z,20.00
2022-11-29T12:27:23.135Z,19.80
2022-11-29T12:28:21.194Z,19.10
2022-11-29T12:29:21.118Z,20.30
2022-11-29T12:30:21.202Z,19.80
2022-11-29T12:31:21.224Z,19.90
2022-11-29T12:32:21.223Z,19.30
2022-11-29T12:33:21.156Z,20.20
2022-11-29T12:34:22.569Z,20.50
2022-11-29T12:35:22.117Z,19.90
2022-11-29T12:36:21.107Z,20.10
2022-11-29T12:37:21.085Z,20.90
2022-11-29T12:38:21.160Z,24.60
2022-11-29T12:39:21.085Z,23.30
2022-11-29T12:40:21.112Z,22.40
2022-11-29T12:41:21.065Z,21.60
2022-11-29T12:42:21.121Z,22.20
2022-11-29T12:43:21.074Z,23.00
2022-11-29T12:44:21.087Z,22.30
2022-11-29T12:45:21.218Z,23.00
2022-11-29T12:46:21.109Z,22.70
2022-11-29T12:47:35.845Z,22.40
2022-11-29T12:48:23.047Z,23.00
2022-11-29T12:49:21.061Z,23.40
2022-11-29T12:50:21.065Z,22.40
2022-11-29T12:51:21.301Z,23.10
2022-11-29T12:52:21.049Z,23.60
2022-11-29T12:53:26.814Z,24.60